Time;durP1;ratioP1;P1;durP2;ratioP2;P2;SDS_P1;SDS_P2;PMS_P1;PMS_P2;Temp;Humidity;BMP_temperature;BMP_pressure;BME280_temperature;BME280_humidity;BME280_pressure;Samples;Min_cycle;Max_cycle;Signal;HPM_P1;HPM_P2
2020/12/30 00:00:00;;;;;;;32.00;18.58;;;4.60;95.30;;;;;;5054818;28;20063;-89
2020/12/30 00:02:29;;;;;;;34.63;19.20;;;4.50;95.10;;;;;;5067608;28;20058;-89
2020/12/30 00:04:57;;;;;;;30.77;19.08;;;4.50;95.10;;;;;;5051953;28;20032;-89
2020/12/30 00:07:22;;;;;;;31.90;19.25;;;4.50;95.30;;;;;;5058516;28;20115;-89
2020/12/30 00:09:49;;;;;;;30.15;19.90;;;4.50;95.10;;;;;;5054680;28;20473;-87
2020/12/30 00:12:18;;;;;;;30.77;18.92;;;4.50;95.00;;;;;;5068070;28;20034;-89
2020/12/30 00:14:45;;;;;;;31.35;18.17;;;4.40;95.00;;;;;;5048239;28;20037;-88
2020/12/30 00:17:10;;;;;;;30.75;19.08;;;4.50;95.20;;;;;;5056352;28;20020;-88
2020/12/30 00:19:36;;;;;;;31.90;20.08;;;4.40;94.90;;;;;;5066561;28;20027;-89
2020/12/30 00:22:08;;;;;;;27.38;18.48;;;4.40;94.70;;;;;;5036238;28;20032;-88
2020/12/30 00:24:33;;;;;;;32.15;20.33;;;4.40;94.90;;;;;;5055447;28;20032;-89
2020/12/30 00:27:03;;;;;;;29.77;18.55;;;4.30;94.60;;;;;;5070067;28;20039;-89
2020/12/30 00:29:29;;;;;;;29.33;19.38;;;4.30;94.70;;;;;;5055718;28;20020;-89
2020/12/30 00:31:54;;;;;;;33.40;20.80;;;4.30;94.60;;;;;;5059784;28;20072;-88
2020/12/30 00:34:20;;;;;;;39.25;21.08;;;4.30;94.70;;;;;;5070253;28;20064;-89
2020/12/30 00:36:46;;;;;;;32.33;19.90;;;4.20;94.40;;;;;;5064928;28;20056;-89
2020/12/30 00:39:11;;;;;;;29.85;19.73;;;4.20;94.60;;;;;;5057585;28;20024;-88
2020/12/30 00:41:37;;;;;;;34.53;20.73;;;4.20;94.70;;;;;;5074603;28;20028;-89
2020/12/30 00:44:03;;;;;;;31.98;20.90;;;4.20;94.70;;;;;;5061372;28;20107;-89
2020/12/30 00:46:28;;;;;;;33.03;20.70;;;4.10;94.40;;;;;;5057345;28;20115;-88
2020/12/30 00:48:54;;;;;;;34.67;20.25;;;4.00;94.40;;;;;;5074918;28;20020;-88
2020/12/30 00:51:20;;;;;;;31.02;20.23;;;4.00;94.50;;;;;;5074654;28;20030;-89
2020/12/30 00:53:45;;;;;;;31.67;18.98;;;4.00;94.60;;;;;;5057582;28;20040;-88
2020/12/30 00:56:12;;;;;;;32.92;20.63;;;4.00;94.70;;;;;;5074241;28;20082;-89
2020/12/30 00:58:38;;;;;;;33.55;21.13;;;4.00;94.60;;;;;;5074210;28;20099;-89
2020/12/30 01:01:05;;;;;;;35.15;21.80;;;4.00;94.70;;;;;;5074560;28;20081;-88
2020/12/30 01:03:32;;;;;;;36.22;22.70;;;4.00;94.70;;;;;;5078153;28;20069;-88
2020/12/30 01:05:57;;;;;;;38.67;23.73;;;3.90;94.40;;;;;;5046361;28;20078;-88
2020/12/30 01:08:23;;;;;;;40.38;24.65;;;3.90;94.40;;;;;;5059166;28;20021;-89
2020/12/30 01:10:49;;;;;;;35.53;21.95;;;3.80;94.40;;;;;;5065023;28;20541;-89
2020/12/30 01:13:15;;;;;;;40.42;22.92;;;3.80;94.50;;;;;;5068787;28;20059;-89
2020/12/30 01:15:41;;;;;;;36.42;21.13;;;3.80;94.70;;;;;;5072414;28;20020;-89
2020/12/30 01:18:07;;;;;;;41.25;23.80;;;3.70;94.60;;;;;;5051419;28;20036;-89
2020/12/30 01:20:32;;;;;;;37.67;22.23;;;3.70;94.40;;;;;;5087441;28;20029;-88
2020/12/30 01:22:58;;;;;;;42.00;23.77;;;3.70;94.60;;;;;;5045481;28;20060;-88
2020/12/30 01:25:24;;;;;;;38.72;22.88;;;3.70;94.40;;;;;;5055246;28;20055;-88
2020/12/30 01:27:49;;;;;;;41.17;24.10;;;3.60;94.60;;;;;;5055115;28;20033;-88
2020/12/30 01:30:15;;;;;;;31.45;20.63;;;3.60;94.60;;;;;;5067655;28;20028;-89
2020/12/30 01:32:41;;;;;;;42.65;24.52;;;3.60;94.80;;;;;;5073945;28;20047;-89
2020/12/30 01:35:07;;;;;;;44.45;25.20;;;3.60;94.70;;;;;;5071048;28;20051;-89
2020/12/30 01:37:32;;;;;;;40.20;24.30;;;3.60;94.60;;;;;;5060531;28;20448;-86
2020/12/30 01:39:58;;;;;;;45.13;25.02;;;3.50;94.60;;;;;;5071988;28;20035;-87
2020/12/30 01:42:24;;;;;;;36.90;21.75;;;3.50;94.70;;;;;;5089114;28;20445;-88
2020/12/30 01:44:49;;;;;;;35.25;21.95;;;3.50;94.80;;;;;;5087657;28;20024;-89
2020/12/30 01:47:17;;;;;;;37.80;23.15;;;3.50;94.90;;;;;;5071013;28;20088;-90
2020/12/30 01:49:42;;;;;;;41.65;23.73;;;3.50;94.80;;;;;;5091276;28;20031;-89
2020/12/30 01:52:08;;;;;;;39.97;23.25;;;3.40;94.90;;;;;;5068389;28;20640;-89
2020/12/30 01:54:34;;;;;;;41.38;23.77;;;3.40;95.00;;;;;;5054833;28;20090;-89
2020/12/30 01:57:06;;;;;;;40.00;22.92;;;3.40;95.10;;;;;;5084296;28;20036;-88
2020/12/30 01:59:31;;;;;;;41.67;24.60;;;3.50;95.10;;;;;;5055836;28;20016;-88
2020/12/30 02:02:03;;;;;;;35.67;22.25;;;3.50;95.10;;;;;;5054497;28;20035;-89
2020/12/30 02:04:50;;;;;;;36.83;23.52;;;3.50;95.20;;;;;;5054847;28;20031;-89
2020/12/30 02:07:16;;;;;;;38.97;22.77;;;3.50;95.10;;;;;;5066788;28;20030;-89
2020/12/30 02:09:43;;;;;;;45.35;24.92;;;3.50;95.10;;;;;;5057568;28;20047;-89
2020/12/30 02:12:10;;;;;;;35.17;21.92;;;3.50;95.10;;;;;;5058140;28;20028;-89
2020/12/30 02:14:36;;;;;;;33.33;20.60;;;3.50;95.10;;;;;;5092158;28;20036;-89
2020/12/30 02:17:03;;;;;;;43.97;23.85;;;3.60;95.20;;;;;;5040960;28;20025;-88
2020/12/30 02:19:28;;;;;;;37.72;22.85;;;3.60;95.20;;;;;;5057464;28;20119;-87
2020/12/30 02:22:05;;;;;;;36.40;20.73;;;3.60;95.10;;;;;;5054604;28;20120;-88
2020/12/30 02:24:35;;;;;;;43.22;23.55;;;3.60;95.30;;;;;;5068333;28;20055;-89
2020/12/30 02:27:04;;;;;;;44.90;24.88;;;3.60;95.10;;;;;;5074244;28;20116;-89
2020/12/30 02:29:30;;;;;;;40.22;23.55;;;3.50;95.00;;;;;;5061833;28;20024;-89
2020/12/30 02:31:56;;;;;;;39.30;22.92;;;3.50;95.00;;;;;;5058354;28;20044;-88
2020/12/30 02:34:22;;;;;;;34.40;21.55;;;3.50;95.10;;;;;;5075443;28;20036;-89
2020/12/30 02:36:48;;;;;;;40.33;23.35;;;3.50;95.20;;;;;;5058240;28;20071;-90
2020/12/30 02:39:13;;;;;;;43.80;24.88;;;3.50;95.00;;;;;;5045542;28;20052;-89
2020/12/30 02:41:39;;;;;;;44.30;25.40;;;3.50;95.10;;;;;;5041264;28;20066;-88
2020/12/30 02:44:06;;;;;;;41.75;24.50;;;3.40;95.10;;;;;;5044574;28;20028;-88
2020/12/30 02:46:32;;;;;;;37.92;22.88;;;3.40;95.20;;;;;;5050916;28;20041;-88
2020/12/30 02:48:58;;;;;;;43.60;25.27;;;3.40;95.30;;;;;;5077377;28;20089;-89
2020/12/30 02:51:24;;;;;;;42.78;24.45;;;3.50;95.40;;;;;;5070964;28;20062;-89
2020/12/30 02:53:50;;;;;;;37.97;23.63;;;3.40;95.60;;;;;;5061988;28;20383;-89
2020/12/30 02:56:20;;;;;;;36.78;21.35;;;3.40;95.30;;;;;;5080413;28;20016;-88
2020/12/30 02:58:46;;;;;;;33.75;19.88;;;3.50;95.40;;;;;;5096142;28;20035;-86
2020/12/30 03:01:16;;;;;;;37.92;22.08;;;3.50;95.40;;;;;;5090963;28;20012;-86
2020/12/30 03:03:42;;;;;;;41.40;21.88;;;3.40;95.20;;;;;;5101831;28;20004;-88
2020/12/30 03:06:08;;;;;;;33.83;20.85;;;3.40;95.10;;;;;;5101410;28;20035;-87
2020/12/30 03:08:35;;;;;;;36.33;21.30;;;3.40;95.30;;;;;;5095387;28;20005;-88
2020/12/30 03:11:01;;;;;;;33.30;20.02;;;3.40;95.30;;;;;;5072584;28;20045;-89
2020/12/30 03:13:27;;;;;;;35.67;20.90;;;3.40;95.40;;;;;;5082834;28;20028;-89
2020/12/30 03:15:53;;;;;;;34.92;21.00;;;3.50;95.40;;;;;;5066532;28;20032;-89
2020/12/30 03:18:19;;;;;;;36.55;20.63;;;3.50;95.30;;;;;;5059192;28;20524;-88
2020/12/30 03:20:45;;;;;;;31.85;19.45;;;3.50;95.40;;;;;;5077062;28;20123;-89
2020/12/30 03:23:11;;;;;;;29.98;18.02;;;3.50;95.40;;;;;;5094462;28;20028;-88
2020/12/30 03:25:36;;;;;;;30.95;19.27;;;3.50;95.40;;;;;;5063265;28;20020;-89
2020/12/30 03:28:03;;;;;;;40.00;23.02;;;3.60;95.40;;;;;;5064464;28;20024;-89
2020/12/30 03:30:29;;;;;;;36.65;21.02;;;3.60;95.10;;;;;;5070691;28;20035;-89
2020/12/30 03:32:55;;;;;;;38.90;21.23;;;3.50;95.10;;;;;;5061985;28;20052;-88
2020/12/30 03:35:24;;;;;;;35.78;21.73;;;3.50;95.30;;;;;;5048775;28;20039;-89
2020/12/30 03:37:51;;;;;;;34.10;20.17;;;3.50;95.20;;;;;;5088882;28;20035;-87
2020/12/30 03:40:17;;;;;;;31.95;19.98;;;3.60;95.30;;;;;;5053441;28;20039;-89
2020/12/30 03:42:46;;;;;;;35.13;20.98;;;3.60;95.30;;;;;;5046137;28;20379;-88
2020/12/30 03:45:12;;;;;;;44.35;24.50;;;3.60;95.30;;;;;;5063687;28;20036;-89
2020/12/30 03:47:37;;;;;;;35.30;21.95;;;3.60;95.30;;;;;;5069838;28;20028;-89
2020/12/30 03:50:04;;;;;;;34.88;21.02;;;3.50;95.30;;;;;;5030163;28;20024;-89
2020/12/30 03:52:30;;;;;;;41.40;23.75;;;3.50;95.30;;;;;;5088232;28;20085;-89
2020/12/30 03:54:55;;;;;;;38.60;20.73;;;3.50;95.30;;;;;;5047827;28;20028;-88
2020/12/30 03:57:21;;;;;;;33.47;20.02;;;3.60;95.50;;;;;;5076142;28;20028;-88
2020/12/30 03:59:47;;;;;;;38.97;22.33;;;3.60;95.50;;;;;;5043022;28;20025;-89
2020/12/30 04:02:12;;;;;;;36.45;20.73;;;3.60;95.40;;;;;;5056052;28;20032;-90
2020/12/30 04:04:38;;;;;;;42.40;24.15;;;3.60;95.50;;;;;;5054035;28;20031;-89
2020/12/30 04:07:04;;;;;;;39.85;22.58;;;3.60;95.30;;;;;;5073664;28;20337;-90
2020/12/30 04:09:29;;;;;;;36.63;20.85;;;3.60;95.50;;;;;;5055816;28;20071;-89
2020/12/30 04:11:55;;;;;;;34.22;20.08;;;3.60;95.50;;;;;;5058126;28;20102;-88
2020/12/30 04:14:21;;;;;;;32.72;18.92;;;3.60;95.60;;;;;;5042873;28;20024;-89
2020/12/30 04:16:46;;;;;;;38.80;22.65;;;3.60;95.60;;;;;;5059122;28;20043;-88
2020/12/30 04:19:12;;;;;;;44.72;24.70;;;3.70;95.40;;;;;;5056557;28;20036;-90
2020/12/30 04:21:38;;;;;;;36.65;20.88;;;3.60;95.30;;;;;;5053805;28;20075;-88
2020/12/30 04:24:03;;;;;;;39.88;21.95;;;3.60;95.60;;;;;;5049441;28;20028;-89
2020/12/30 04:26:29;;;;;;;35.63;20.23;;;3.70;95.60;;;;;;5053302;28;20039;-88
2020/12/30 04:28:55;;;;;;;37.42;22.17;;;3.70;95.60;;;;;;5080985;28;20024;-89
2020/12/30 04:31:20;;;;;;;40.80;23.52;;;3.70;95.50;;;;;;5042148;28;20047;-88
2020/12/30 04:33:46;;;;;;;31.17;19.17;;;3.60;95.40;;;;;;5056162;28;20473;-89
2020/12/30 04:36:13;;;;;;;41.33;22.85;;;3.70;95.70;;;;;;5038935;28;20473;-89
2020/12/30 04:38:39;;;;;;;38.08;22.73;;;3.70;95.50;;;;;;5073167;28;20071;-89
2020/12/30 04:41:11;;;;;;;49.88;25.63;;;3.70;95.60;;;;;;5082596;28;20027;-88
2020/12/30 04:43:39;;;;;;;39.33;23.55;;;3.60;95.50;;;;;;5059026;28;20024;-89
2020/12/30 04:46:05;;;;;;;43.83;24.75;;;3.60;95.70;;;;;;5049306;28;20032;-89
2020/12/30 04:48:34;;;;;;;46.55;26.60;;;3.60;95.70;;;;;;5039052;28;20032;-89
2020/12/30 04:51:01;;;;;;;40.65;22.65;;;3.60;95.70;;;;;;5045274;28;20395;-88
2020/12/30 04:53:27;;;;;;;43.70;23.02;;;3.60;95.80;;;;;;5075355;28;20038;-89
2020/12/30 04:55:58;;;;;;;38.45;21.67;;;3.70;95.80;;;;;;5055065;28;20123;-89
2020/12/30 04:58:27;;;;;;;39.92;22.33;;;3.60;95.90;;;;;;5054955;28;20063;-88
2020/12/30 05:00:53;;;;;;;43.67;23.90;;;3.70;95.90;;;;;;5059213;28;20031;-89
2020/12/30 05:03:29;;;;;;;44.78;24.55;;;3.70;95.90;;;;;;5075202;28;20028;-89
2020/12/30 05:05:59;;;;;;;46.08;25.45;;;3.60;95.90;;;;;;5058249;28;20021;-89
2020/12/30 05:08:25;;;;;;;41.92;24.73;;;3.60;96.00;;;;;;5092214;28;20088;-89
2020/12/30 05:10:52;;;;;;;47.85;24.85;;;3.70;96.10;;;;;;5065484;28;20027;-89
2020/12/30 05:13:21;;;;;;;37.08;22.17;;;3.70;96.10;;;;;;5070449;28;20043;-87
2020/12/30 05:15:47;;;;;;;38.58;23.52;;;3.70;96.10;;;;;;5058605;28;20035;-89
2020/12/30 05:18:13;;;;;;;47.88;25.30;;;3.70;96.10;;;;;;5074730;28;20024;-88
2020/12/30 05:20:38;;;;;;;39.53;22.02;;;3.70;96.10;;;;;;5074650;28;20464;-89
2020/12/30 05:23:08;;;;;;;38.85;24.60;;;3.70;96.30;;;;;;5074446;28;20522;-88
2020/12/30 05:25:35;;;;;;;40.47;22.55;;;3.80;96.10;;;;;;5075215;28;20126;-89
2020/12/30 05:28:05;;;;;;;40.70;23.13;;;3.80;96.10;;;;;;5057872;28;20024;-89
2020/12/30 05:30:32;;;;;;;39.53;23.13;;;3.80;96.10;;;;;;5055108;28;20028;-88
2020/12/30 05:32:58;;;;;;;41.35;24.50;;;3.80;96.10;;;;;;5067317;28;20083;-89
2020/12/30 05:35:28;;;;;;;41.53;25.50;;;3.80;96.20;;;;;;5069915;28;20043;-89
2020/12/30 05:37:55;;;;;;;47.13;27.50;;;3.80;96.10;;;;;;5045881;28;20029;-89
2020/12/30 05:40:26;;;;;;;46.05;26.75;;;3.70;96.10;;;;;;5068674;28;20029;-89
2020/12/30 05:42:53;;;;;;;41.13;22.60;;;3.80;96.10;;;;;;5064752;28;20057;-89
2020/12/30 05:45:23;;;;;;;42.60;24.75;;;3.80;96.20;;;;;;5058799;28;20028;-89
2020/12/30 05:47:52;;;;;;;46.60;26.80;;;3.80;96.20;;;;;;5054676;28;20053;-90
2020/12/30 05:50:25;;;;;;;49.92;26.80;;;3.80;96.10;;;;;;5054674;28;20029;-89
2020/12/30 05:52:54;;;;;;;43.95;24.50;;;3.80;96.10;;;;;;5042281;28;20445;-89
2020/12/30 05:55:26;;;;;;;43.33;26.70;;;3.80;96.20;;;;;;5068415;28;20025;-87
2020/12/30 05:57:53;;;;;;;38.85;22.45;;;3.80;96.10;;;;;;5054484;28;20013;-88
2020/12/30 06:00:19;;;;;;;42.63;25.23;;;3.80;96.30;;;;;;5071995;28;20080;-88
2020/12/30 06:02:46;;;;;;;42.70;24.05;;;3.80;96.20;;;;;;5052112;28;20033;-89
2020/12/30 06:05:20;;;;;;;36.67;22.83;;;3.80;96.20;;;;;;5046189;28;20056;-88
2020/12/30 06:07:48;;;;;;;40.08;23.20;;;3.80;96.20;;;;;;5060786;28;20107;-88
2020/12/30 06:10:19;;;;;;;42.65;25.75;;;3.80;96.20;;;;;;5094873;28;20028;-87
2020/12/30 06:12:47;;;;;;;37.75;22.25;;;3.80;96.10;;;;;;5064545;28;20061;-87
2020/12/30 06:15:25;;;;;;;42.85;24.63;;;3.90;96.20;;;;;;5068590;28;20080;-89
2020/12/30 06:18:02;;;;;;;46.67;25.50;;;3.90;96.20;;;;;;5074896;28;20115;-88
2020/12/30 06:20:33;;;;;;;40.95;24.55;;;3.80;96.10;;;;;;5068226;28;20024;-89
2020/12/30 06:23:06;;;;;;;;;;;3.80;96.20;;;;;;5093640;28;20024;-89
2020/12/30 06:25:36;;;;;;;41.38;23.80;;;3.80;96.30;;;;;;5105798;28;19933;-88
2020/12/30 06:28:10;;;;;;;42.28;24.38;;;3.80;96.20;;;;;;5079839;28;20073;-88
2020/12/30 06:30:36;;;;;;;38.88;23.85;;;3.90;96.30;;;;;;5058259;28;20025;-90
2020/12/30 06:33:04;;;;;;;38.92;22.17;;;3.90;96.30;;;;;;5057595;28;20048;-89
2020/12/30 06:35:31;;;;;;;40.20;24.65;;;3.90;96.30;;;;;;5041931;28;20028;-88
2020/12/30 06:37:58;;;;;;;55.42;28.92;;;4.00;96.40;;;;;;5075617;28;20484;-89
2020/12/30 06:40:31;;;;;;;36.72;21.88;;;3.90;96.20;;;;;;5073278;28;20040;-88
2020/12/30 06:42:59;;;;;;;51.53;27.15;;;3.90;96.40;;;;;;5095306;28;20042;-88
2020/12/30 06:45:43;;;;;;;49.33;27.77;;;3.90;96.20;;;;;;5082149;28;20032;-87
2020/12/30 06:48:09;;;;;;;46.85;25.25;;;3.80;96.30;;;;;;5081848;28;20016;-87
2020/12/30 06:50:35;;;;;;;43.78;24.80;;;3.90;96.40;;;;;;5095747;28;20001;-88
2020/12/30 06:53:30;;;;;;;44.17;26.38;;;3.90;96.50;;;;;;5098685;28;20091;-88
2020/12/30 06:56:01;;;;;;;48.78;25.63;;;3.90;96.40;;;;;;5088755;28;20025;-88
2020/12/30 06:58:45;;;;;;;41.75;23.55;;;3.90;96.50;;;;;;5076689;28;20085;-89
2020/12/30 07:01:16;;;;;;;39.75;22.05;;;3.90;96.50;;;;;;5076810;28;20024;-89
2020/12/30 07:03:42;;;;;;;45.35;25.92;;;3.90;96.80;;;;;;5064860;28;20028;-89
2020/12/30 07:06:22;;;;;;;53.22;24.42;;;3.90;96.50;;;;;;5060577;28;20066;-88
2020/12/30 07:08:48;;;;;;;46.22;25.90;;;3.90;96.50;;;;;;5077312;28;20387;-89
2020/12/30 07:11:39;;;;;;;35.55;21.90;;;4.00;96.40;;;;;;5067455;28;20016;-88
2020/12/30 07:14:18;;;;;;;41.15;22.40;;;4.00;96.40;;;;;;5062310;28;20097;-88
2020/12/30 07:16:58;;;;;;;43.40;24.58;;;3.90;96.40;;;;;;5081686;28;20078;-89
2020/12/30 07:19:31;;;;;;;43.85;24.13;;;4.00;96.40;;;;;;5057043;28;20016;-89
2020/12/30 07:22:01;;;;;;;36.35;20.52;;;3.90;96.40;;;;;;5070853;28;20021;-89
2020/12/30 07:24:29;;;;;;;45.25;24.02;;;4.00;96.40;;;;;;5060100;28;20511;-89
2020/12/30 07:27:01;;;;;;;43.42;24.08;;;4.00;96.40;;;;;;5074968;28;20029;-88
2020/12/30 07:29:27;;;;;;;42.40;24.08;;;4.00;96.50;;;;;;5093938;28;20073;-88
2020/12/30 07:31:55;;;;;;;39.35;23.77;;;3.90;96.40;;;;;;5056348;28;20083;-87
2020/12/30 07:34:24;;;;;;;43.25;22.45;;;4.00;96.50;;;;;;5088276;28;20051;-89
2020/12/30 07:36:50;;;;;;;43.80;24.58;;;4.00;96.50;;;;;;5084774;28;20024;-89
2020/12/30 07:39:22;;;;;;;40.88;23.75;;;4.00;96.50;;;;;;5074567;28;20054;-89
2020/12/30 07:41:48;;;;;;;37.90;22.98;;;4.00;96.50;;;;;;5057112;28;20098;-88
2020/12/30 07:44:13;;;;;;;35.65;22.33;;;4.00;96.60;;;;;;5057512;28;20028;-89
2020/12/30 07:46:41;;;;;;;39.45;23.50;;;4.10;96.50;;;;;;5076242;28;20035;-88
2020/12/30 07:49:11;;;;;;;36.60;22.08;;;4.10;96.50;;;;;;5060063;28;20029;-87
2020/12/30 07:51:44;;;;;;;40.25;23.00;;;4.10;96.50;;;;;;5075500;28;20028;-88
2020/12/30 07:54:13;;;;;;;43.17;24.20;;;4.10;96.50;;;;;;5071842;28;20063;-88
2020/12/30 07:56:39;;;;;;;46.20;24.73;;;4.10;96.40;;;;;;5074784;28;20028;-88
2020/12/30 07:59:04;;;;;;;43.05;24.35;;;4.10;96.50;;;;;;5076717;28;20024;-93
2020/12/30 08:01:30;;;;;;;43.58;24.40;;;4.10;96.60;;;;;;5067181;28;20038;-91
2020/12/30 08:04:05;;;;;;;38.50;22.67;;;4.10;96.60;;;;;;5048264;28;20361;-92
2020/12/30 08:06:46;;;;;;;40.03;23.88;;;4.10;96.60;;;;;;5062330;28;20491;-92
2020/12/30 08:09:13;;;;;;;38.45;22.13;;;4.10;96.60;;;;;;5087115;28;20028;-91
2020/12/30 08:11:50;;;;;;;36.85;21.08;;;4.20;96.70;;;;;;5056136;28;20070;-92
2020/12/30 08:14:16;;;;;;;42.63;23.15;;;4.10;96.80;;;;;;5091573;28;20032;-92
2020/12/30 08:17:04;;;;;;;45.92;24.58;;;4.20;96.80;;;;;;5053282;28;20177;-91
2020/12/30 08:19:37;;;;;;;42.38;24.15;;;4.20;96.80;;;;;;5081544;28;20074;-90
2020/12/30 08:22:04;;;;;;;37.33;21.23;;;4.20;96.90;;;;;;5087187;28;20058;-90
2020/12/30 08:24:31;;;;;;;32.22;19.13;;;4.20;96.90;;;;;;5072146;28;20642;-93
2020/12/30 08:26:57;;;;;;;47.95;25.52;;;4.20;96.90;;;;;;5085083;28;20028;-94
2020/12/30 08:29:38;;;;;;;38.67;23.10;;;4.20;96.90;;;;;;5068705;28;20073;-93
2020/12/30 08:32:26;;;;;;;43.00;23.20;;;4.20;96.90;;;;;;5060080;28;20542;-93
2020/12/30 08:35:03;;;;;;;36.80;21.30;;;4.30;97.00;;;;;;5061663;28;20038;-93
2020/12/30 08:37:34;;;;;;;34.47;20.13;;;4.30;97.00;;;;;;5090487;28;20024;-92
2020/12/30 08:40:03;;;;;;;41.28;23.20;;;4.30;97.00;;;;;;5083309;28;20030;-94
2020/12/30 08:42:53;;;;;;;36.47;23.13;;;4.40;97.00;;;;;;5082796;28;20019;-88
2020/12/30 08:45:26;;;;;;;37.27;21.50;;;4.30;96.90;;;;;;5098199;28;20016;-92
2020/12/30 08:47:53;;;;;;;37.47;21.27;;;4.30;97.00;;;;;;5097852;28;20269;-95
2020/12/30 08:50:26;;;;;;;52.08;26.15;;;4.40;97.00;;;;;;5098550;28;20038;-95
2020/12/30 08:52:55;;;;;;;40.67;24.13;;;4.40;97.00;;;;;;5098576;28;20024;-95
2020/12/30 08:55:21;;;;;;;51.55;26.52;;;4.40;97.00;;;;;;5064961;28;20476;-94
2020/12/30 08:57:47;;;;;;;41.00;23.27;;;4.40;97.00;;;;;;5096441;28;20016;-93
2020/12/30 09:00:21;;;;;;;42.83;23.77;;;4.40;97.00;;;;;;5064930;28;20020;-92
2020/12/30 09:02:48;;;;;;;45.40;24.02;;;4.40;97.00;;;;;;5097176;28;20532;-92
2020/12/30 09:05:31;;;;;;;44.65;24.30;;;4.40;97.00;;;;;;5106197;28;20051;-93
2020/12/30 09:08:13;;;;;;;45.85;26.60;;;4.40;97.00;;;;;;5079224;28;20111;-94
2020/12/30 09:10:39;;;;;;;47.22;25.67;;;4.50;97.00;;;;;;5073568;28;20028;-93
2020/12/30 09:13:20;;;;;;;47.67;25.15;;;4.50;97.00;;;;;;5077201;28;20050;-93
2020/12/30 09:15:54;;;;;;;43.63;24.65;;;4.50;97.00;;;;;;5078936;28;20032;-94
2020/12/30 09:18:20;;;;;;;41.10;25.08;;;4.40;97.10;;;;;;5069919;28;20031;-92
2020/12/30 09:20:45;;;;;;;38.55;23.95;;;4.50;97.10;;;;;;5071642;28;20086;-93
2020/12/30 09:23:11;;;;;;;36.67;22.70;;;4.50;97.10;;;;;;5056961;28;20048;-94
2020/12/30 09:25:39;;;;;;;46.03;26.60;;;4.50;97.10;;;;;;5041106;28;20039;-92
2020/12/30 09:28:19;;;;;;;45.72;25.60;;;4.60;97.00;;;;;;5078692;28;20008;-92
2020/12/30 09:30:46;;;;;;;39.30;24.15;;;4.60;97.00;;;;;;5057361;28;20031;-90
2020/12/30 09:33:17;;;;;;;48.70;26.42;;;4.60;97.10;;;;;;5104073;28;20029;-93
2020/12/30 09:35:44;;;;;;;44.38;25.70;;;4.60;97.00;;;;;;5078073;28;20115;-93
2020/12/30 09:38:24;;;;;;;46.60;27.13;;;4.60;97.10;;;;;;5067609;28;20028;-95
2020/12/30 09:40:51;;;;;;;43.67;25.42;;;4.60;97.00;;;;;;5082539;28;20453;-93
2020/12/30 09:43:25;;;;;;;43.20;25.42;;;4.60;97.10;;;;;;5078488;28;20131;-93
2020/12/30 09:46:00;;;;;;;54.05;28.05;;;4.60;97.10;;;;;;5074141;28;20486;-93
2020/12/30 09:48:26;;;;;;;40.30;24.25;;;4.60;97.00;;;;;;5117513;28;20026;-93
2020/12/30 09:50:53;;;;;;;41.08;24.83;;;4.70;97.10;;;;;;5085323;28;20030;-93
2020/12/30 09:53:19;;;;;;;40.97;23.52;;;4.70;97.10;;;;;;5086560;28;20036;-94
2020/12/30 09:55:47;;;;;;;38.30;22.77;;;4.70;97.10;;;;;;5115340;28;20020;-94
2020/12/30 09:58:13;;;;;;;37.92;22.70;;;4.70;97.00;;;;;;5117200;28;20168;-94
2020/12/30 10:00:39;;;;;;;49.13;26.80;;;4.80;97.10;;;;;;5064838;28;20119;-93
2020/12/30 10:03:05;;;;;;;36.67;22.02;;;4.80;96.90;;;;;;5062231;28;20028;-94
2020/12/30 10:05:31;;;;;;;41.03;24.13;;;4.80;97.00;;;;;;5115270;28;20028;-93
2020/12/30 10:07:57;;;;;;;39.13;24.02;;;4.80;97.00;;;;;;5098809;28;20379;-92
2020/12/30 10:10:24;;;;;;;44.80;26.17;;;4.80;96.90;;;;;;5099428;28;20438;-94
2020/12/30 10:12:49;;;;;;;45.17;25.85;;;4.90;96.90;;;;;;5060399;28;20055;-93
2020/12/30 10:15:17;;;;;;;33.65;22.23;;;4.90;96.90;;;;;;5081388;28;20063;-94
2020/12/30 10:17:43;;;;;;;33.28;20.88;;;4.90;96.90;;;;;;5099527;28;20095;-93
2020/12/30 10:20:11;;;;;;;45.13;25.08;;;4.90;96.90;;;;;;5097517;28;20070;-93
2020/12/30 10:22:38;;;;;;;48.67;25.50;;;4.90;96.90;;;;;;5092660;28;20072;-92
2020/12/30 10:25:06;;;;;;;39.13;22.35;;;5.00;96.90;;;;;;5052565;28;20242;-93
2020/12/30 10:27:32;;;;;;;40.67;23.60;;;5.00;97.00;;;;;;5107815;27;20041;-86
2020/12/30 10:29:58;;;;;;;37.38;22.13;;;5.00;96.90;;;;;;5122087;27;20107;-88
2020/12/30 10:32:23;;;;;;;36.13;22.65;;;5.10;96.90;;;;;;5122631;27;20032;-90
2020/12/30 10:34:49;;;;;;;44.10;24.20;;;5.10;96.90;;;;;;5122252;27;20024;-87
2020/12/30 10:37:18;;;;;;;38.08;24.15;;;5.10;96.80;;;;;;5112352;28;20008;-90
2020/12/30 10:39:45;;;;;;;35.95;22.25;;;5.10;96.80;;;;;;5085045;27;20012;-86
2020/12/30 10:42:11;;;;;;;32.20;19.75;;;5.10;96.80;;;;;;5121531;28;20018;-91
2020/12/30 10:44:37;;;;;;;34.13;20.67;;;5.10;96.90;;;;;;5116211;28;20031;-92
2020/12/30 10:47:03;;;;;;;36.85;22.80;;;5.20;96.90;;;;;;5085101;28;20143;-93
2020/12/30 10:49:28;;;;;;;35.20;21.55;;;5.20;96.80;;;;;;5059910;28;20028;-93
2020/12/30 10:51:54;;;;;;;41.25;24.08;;;5.10;96.70;;;;;;5056572;28;20031;-92
2020/12/30 10:54:22;;;;;;;35.97;22.75;;;5.20;96.70;;;;;;5099223;28;20028;-93
2020/12/30 10:56:53;;;;;;;39.05;24.42;;;5.20;96.80;;;;;;5115695;28;20028;-93
2020/12/30 10:59:19;;;;;;;32.05;20.55;;;5.20;96.60;;;;;;5098913;28;20036;-92
2020/12/30 11:01:48;;;;;;;38.42;24.05;;;5.20;96.70;;;;;;5058303;28;20021;-87
2020/12/30 11:04:14;;;;;;;34.58;21.70;;;5.20;96.70;;;;;;5076011;28;20028;-93
2020/12/30 11:06:39;;;;;;;33.38;21.20;;;5.20;96.80;;;;;;5076944;28;20174;-94
2020/12/30 11:09:06;;;;;;;32.22;20.85;;;5.20;96.80;;;;;;5055103;28;20048;-92
2020/12/30 11:11:32;;;;;;;35.45;22.67;;;5.20;96.90;;;;;;5049626;28;20032;-94
2020/12/30 11:13:58;;;;;;;41.60;24.75;;;5.30;96.80;;;;;;5078663;28;20110;-93
2020/12/30 11:16:23;;;;;;;34.92;22.27;;;5.30;96.80;;;;;;5071120;28;20025;-94
2020/12/30 11:18:49;;;;;;;39.40;24.40;;;5.30;96.80;;;;;;5071895;28;20474;-92
2020/12/30 11:21:14;;;;;;;36.30;22.65;;;5.40;96.80;;;;;;5048661;28;20024;-93
2020/12/30 11:23:40;;;;;;;33.75;22.40;;;5.40;96.90;;;;;;5077728;28;20105;-93
2020/12/30 11:26:06;;;;;;;42.15;24.35;;;5.40;96.90;;;;;;5057312;28;20040;-93
2020/12/30 11:28:32;;;;;;;32.42;20.95;;;5.40;96.70;;;;;;5052240;28;20036;-93
2020/12/30 11:30:57;;;;;;;37.72;22.88;;;5.50;96.90;;;;;;5058988;28;20016;-92
2020/12/30 11:33:23;;;;;;;34.38;22.83;;;5.50;96.80;;;;;;5049540;28;20028;-93
2020/12/30 11:35:49;;;;;;;30.45;19.85;;;5.50;96.60;;;;;;5060455;28;20870;-88
2020/12/30 11:38:14;;;;;;;33.72;20.25;;;5.50;96.80;;;;;;5053467;28;20032;-87
2020/12/30 11:40:40;;;;;;;33.10;20.90;;;5.50;96.80;;;;;;5062756;28;20074;-92
2020/12/30 11:43:06;;;;;;;30.30;20.65;;;5.60;96.70;;;;;;5040691;28;20122;-94
2020/12/30 11:45:32;;;;;;;30.55;19.52;;;5.60;96.80;;;;;;5074616;28;20516;-91
2020/12/30 11:48:02;;;;;;;34.13;20.88;;;5.60;96.80;;;;;;5054433;28;20103;-88
2020/12/30 11:50:29;;;;;;;33.03;21.88;;;5.60;97.00;;;;;;5080661;28;20083;-91
2020/12/30 11:52:56;;;;;;;26.85;18.88;;;5.60;96.70;;;;;;5062058;28;20032;-92
2020/12/30 11:55:22;;;;;;;32.72;19.50;;;5.70;96.80;;;;;;5094163;28;20020;-93
2020/12/30 11:57:47;;;;;;;27.52;17.73;;;5.70;96.60;;;;;;5065507;28;20099;-94
2020/12/30 12:00:13;;;;;;;28.88;18.85;;;5.70;96.50;;;;;;5065903;28;20136;-92
2020/12/30 12:02:39;;;;;;;30.92;19.48;;;5.70;96.60;;;;;;5053719;28;20024;-93
2020/12/30 12:05:12;;;;;;;30.35;17.45;;;5.70;96.50;;;;;;5037642;28;20154;-94
2020/12/30 12:07:39;;;;;;;27.27;17.15;;;5.70;96.60;;;;;;5082480;28;20116;-94
2020/12/30 12:10:06;;;;;;;22.83;14.95;;;5.70;96.60;;;;;;5062754;28;20469;-92
2020/12/30 12:12:31;;;;;;;26.20;15.55;;;5.70;96.70;;;;;;5047454;28;20025;-93
2020/12/30 12:14:57;;;;;;;21.95;15.82;;;5.70;96.60;;;;;;5085212;28;20519;-94
2020/12/30 12:17:23;;;;;;;23.80;14.90;;;5.80;96.70;;;;;;5066402;28;20097;-93
2020/12/30 12:19:48;;;;;;;26.58;15.27;;;5.80;96.70;;;;;;5064153;28;20088;-94
2020/12/30 12:22:14;;;;;;;23.27;15.00;;;5.80;96.60;;;;;;5079148;28;20028;-95
2020/12/30 12:24:40;;;;;;;20.92;15.02;;;5.90;96.70;;;;;;5064185;28;20035;-93
2020/12/30 12:27:06;;;;;;;23.88;14.30;;;5.80;96.60;;;;;;5084333;28;20035;-96
2020/12/30 12:29:35;;;;;;;24.70;15.77;;;5.90;96.80;;;;;;5050139;28;20032;-94
2020/12/30 12:32:09;;;;;;;22.63;14.00;;;5.90;96.70;;;;;;5063201;28;20052;-95
2020/12/30 12:34:36;;;;;;;21.88;15.38;;;6.00;96.60;;;;;;5043799;28;20506;-94
2020/12/30 12:37:02;;;;;;;21.08;14.57;;;5.90;96.50;;;;;;5063072;28;20961;-85
2020/12/30 12:39:28;;;;;;;18.25;12.90;;;6.00;96.50;;;;;;5049376;28;20024;-94
2020/12/30 12:41:55;;;;;;;20.35;14.50;;;6.00;96.60;;;;;;5061775;28;20046;-93